Time;durP1;ratioP1;P1;durP2;ratioP2;P2;SDS_P1;SDS_P2;PMS_P1;PMS_P2;Temp;Humidity;BMP_temperature;BMP_pressure;BME280_temperature;BME280_humidity;BME280_pressure;Samples;Min_cycle;Max_cycle;Signal;HPM_P1;HPM_P2
2023/07/08 00:00:52;;;;;;;16.12;12.98;;;;;;;20.40;96.05;100273.12;1767629;81;21095;-68
2023/07/08 00:03:21;;;;;;;17.27;13.28;;;;;;;20.37;96.53;100266.66;1767908;81;21043;-68
2023/07/08 00:05:54;;;;;;;16.85;13.05;;;;;;;20.35;96.99;100258.30;1767478;81;21067;-69
2023/07/08 00:08:23;;;;;;;15.08;12.58;;;;;;;20.34;97.01;100259.41;1767676;81;21048;-68
2023/07/08 00:10:51;;;;;;;18.12;13.45;;;;;;;20.34;96.17;100267.20;1767453;81;21059;-68
2023/07/08 00:13:20;;;;;;;17.67;13.03;;;;;;;20.33;96.69;100268.30;1689720;84;21079;-68
2023/07/08 00:15:49;;;;;;;18.85;13.18;;;;;;;20.34;96.82;100261.63;1767783;81;21016;-68
2023/07/08 00:18:18;;;;;;;17.15;13.03;;;;;;;20.35;97.07;100267.48;1689710;85;21016;-69
2023/07/08 00:20:49;;;;;;;19.92;13.45;;;;;;;20.32;96.55;100265.23;1767429;81;20981;-70
2023/07/08 00:23:21;;;;;;;18.12;14.43;;;;;;;20.32;96.82;100263.84;1690035;84;21075;-68
2023/07/08 00:25:51;;;;;;;19.57;13.28;;;;;;;20.33;96.98;100264.13;1767486;81;20996;-69
2023/07/08 00:28:21;;;;;;;17.37;13.20;;;;;;;20.33;97.41;100262.73;1689868;83;21063;-68
2023/07/08 00:30:52;;;;;;;19.35;12.95;;;;;;;20.35;97.49;100261.08;1767740;81;21008;-68
2023/07/08 00:33:21;;;;;;;17.27;13.25;;;;;;;20.35;97.40;100248.55;1689683;84;21126;-68
2023/07/08 00:35:49;;;;;;;22.42;12.90;;;;;;;20.36;97.38;100246.06;1767530;81;21000;-68
2023/07/08 00:38:26;;;;;;;17.77;13.08;;;;;;;20.36;97.35;100246.90;1767441;81;21456;-68
2023/07/08 00:41:33;;;;;;;18.20;12.82;;;;;;;20.37;97.15;100243.56;1767463;81;21475;-68
2023/07/08 00:44:02;;;;;;;17.45;12.13;;;;;;;20.34;96.50;100238.53;1767223;81;21037;-66
2023/07/08 00:46:48;;;;;;;15.38;11.80;;;;;;;20.32;96.45;100230.45;1689488;85;21063;-68
2023/07/08 00:49:29;;;;;;;15.70;11.63;;;;;;;20.30;94.92;100233.20;1763196;81;21036;-68
2023/07/08 00:52:27;;;;;;;15.15;11.70;;;;;;;20.28;95.22;100227.91;1767348;81;21039;-68
2023/07/08 00:55:02;;;;;;;15.32;11.65;;;;;;;20.26;95.57;100226.78;1767344;81;21451;-68
2023/07/08 00:57:33;;;;;;;16.30;12.25;;;;;;;20.28;95.75;100229.86;1767393;81;20984;-68
2023/07/08 01:00:15;;;;;;;17.00;11.85;;;;;;;20.26;94.33;100223.17;1767380;81;21448;-68
2023/07/08 01:02:51;;;;;;;15.28;11.75;;;;;;;20.24;94.87;100226.22;1767332;81;21075;-68
2023/07/08 01:05:24;;;;;;;15.87;11.97;;;;;;;20.26;95.15;100222.61;1689929;85;21143;-68
2023/07/08 01:07:58;;;;;;;16.57;11.40;;;;;;;20.26;94.93;100224.56;1767503;81;21765;-67
2023/07/08 01:10:34;;;;;;;16.97;12.05;;;;;;;20.26;94.55;100219.83;1767446;81;21511;-67
2023/07/08 01:13:07;;;;;;;14.33;11.12;;;;;;;20.26;94.01;100214.27;1767833;81;21060;-68
2023/07/08 01:15:42;;;;;;;13.58;10.63;;;;;;;20.25;93.73;100215.92;1689806;85;21040;-69
2023/07/08 01:18:12;;;;;;;15.43;10.40;;;;;;;20.26;94.18;100217.05;1767288;81;21159;-67
2023/07/08 01:20:42;;;;;;;15.88;10.78;;;;;;;20.24;93.30;100219.25;1689634;84;21723;-68
2023/07/08 01:23:12;;;;;;;12.75;10.30;;;;;;;20.23;93.23;100214.80;1767553;81;21083;-68
2023/07/08 01:25:41;;;;;;;14.75;10.93;;;;;;;20.25;93.52;100215.92;1690139;85;21063;-68
2023/07/08 01:28:11;;;;;;;14.05;10.10;;;;;;;20.27;93.49;100210.93;1767629;81;21071;-69
2023/07/08 01:30:43;;;;;;;15.18;10.88;;;;;;;20.28;93.34;100218.72;1689685;83;21079;-68
2023/07/08 01:33:21;;;;;;;14.07;10.13;;;;;;;20.28;93.73;100218.17;1767250;81;21160;-69
2023/07/08 01:35:50;;;;;;;17.40;10.20;;;;;;;20.29;93.81;100214.28;1767582;81;21012;-69
2023/07/08 01:38:26;;;;;;;14.15;10.30;;;;;;;20.30;93.56;100210.40;1671828;85;21099;-70
2023/07/08 01:40:57;;;;;;;15.28;10.10;;;;;;;20.29;92.96;100218.45;1766687;81;21008;-68
2023/07/08 01:43:26;;;;;;;13.03;10.03;;;;;;;20.28;92.96;100207.59;1764614;81;21491;-68
2023/07/08 01:45:55;;;;;;;15.23;10.20;;;;;;;20.29;92.99;100217.06;1764705;81;21008;-69
2023/07/08 01:48:26;;;;;;;13.32;9.50;;;;;;;20.30;93.24;100218.74;1696685;84;21040;-68
2023/07/08 01:50:59;;;;;;;13.80;9.78;;;;;;;20.28;91.40;100219.56;1764699;81;21024;-68
2023/07/08 01:53:36;;;;;;;14.18;9.70;;;;;;;20.27;91.79;100215.10;1696494;84;21056;-69
2023/07/08 01:56:05;;;;;;;13.15;9.80;;;;;;;20.25;91.72;100216.77;1696653;84;21456;-68
2023/07/08 01:58:35;;;;;;;12.20;9.48;;;;;;;20.25;91.60;100208.97;1677886;84;21029;-69
2023/07/08 02:01:03;;;;;;;16.32;9.35;;;;;;;20.21;90.97;100211.44;1764688;81;21024;-68
2023/07/08 02:03:33;;;;;;;13.35;9.48;;;;;;;20.19;90.79;100203.91;1764639;81;21048;-69
2023/07/08 02:06:02;;;;;;;17.30;9.53;;;;;;;20.19;91.29;100207.25;1745745;81;21043;-69
2023/07/08 02:08:31;;;;;;;16.05;9.93;;;;;;;20.20;91.58;100214.49;1696652;84;21091;-67
2023/07/08 02:11:00;;;;;;;12.30;9.45;;;;;;;20.17;90.68;100215.86;1764585;81;21420;-68
2023/07/08 02:13:32;;;;;;;13.03;9.40;;;;;;;20.16;90.60;100207.78;1696491;84;21482;-68
2023/07/08 02:16:00;;;;;;;12.35;9.25;;;;;;;20.16;91.19;100222.53;1764730;81;21027;-69
2023/07/08 02:18:32;;;;;;;14.78;9.58;;;;;;;20.19;91.45;100228.11;1764457;81;21051;-68
2023/07/08 02:21:00;;;;;;;12.47;9.33;;;;;;;20.19;91.16;100232.28;1764673;81;21456;-68
2023/07/08 02:23:29;;;;;;;12.68;9.28;;;;;;;20.20;91.12;100222.84;1696475;84;21059;-69
2023/07/08 02:26:00;;;;;;;13.70;8.80;;;;;;;20.19;90.46;100235.91;1764132;81;21020;-68
2023/07/08 02:28:29;;;;;;;12.95;8.95;;;;;;;20.18;90.34;100242.58;1764515;81;21075;-67
2023/07/08 02:31:04;;;;;;;13.00;8.98;;;;;;;20.18;90.29;100242.58;1696758;84;21028;-67
2023/07/08 02:33:33;;;;;;;12.85;8.88;;;;;;;20.16;90.25;100242.55;1696658;84;21033;-67
2023/07/08 02:36:03;;;;;;;12.47;9.28;;;;;;;20.15;89.81;100245.86;1764717;81;21063;-67
2023/07/08 02:38:31;;;;;;;13.18;8.63;;;;;;;20.14;89.20;100240.56;1696508;84;21486;-67
2023/07/08 02:41:01;;;;;;;14.75;8.50;;;;;;;20.13;89.26;100245.84;1697426;84;21067;-68
2023/07/08 02:43:31;;;;;;;20.23;8.93;;;;;;;20.12;88.77;100248.33;1769914;81;21483;-67
2023/07/08 02:46:00;;;;;;;13.08;9.35;;;;;;;20.08;88.33;100248.02;1770040;81;21008;-68
2023/07/08 02:48:30;;;;;;;15.15;8.63;;;;;;;20.08;87.97;100248.56;1701677;84;21048;-69
2023/07/08 02:51:02;;;;;;;14.13;8.43;;;;;;;20.06;88.56;100250.23;1770129;81;21031;-69
2023/07/08 02:53:32;;;;;;;13.03;9.15;;;;;;;20.06;88.53;100241.05;1701872;84;21079;-68
2023/07/08 02:56:01;;;;;;;14.30;8.40;;;;;;;20.08;88.19;100245.78;1770012;81;21016;-68
2023/07/08 02:58:31;;;;;;;14.05;8.30;;;;;;;20.05;88.31;100236.03;1770090;81;21020;-68
2023/07/08 03:01:00;;;;;;;14.70;8.40;;;;;;;20.06;88.47;100246.61;1770066;81;21458;-68
2023/07/08 03:03:31;;;;;;;10.05;7.83;;;;;;;20.05;88.28;100243.53;1701882;84;21067;-68
2023/07/08 03:06:02;;;;;;;11.95;8.30;;;;;;;20.03;88.17;100243.80;1769895;81;21016;-68
2023/07/08 03:08:32;;;;;;;10.93;8.18;;;;;;;20.05;88.36;100253.27;1699244;84;21079;-69
2023/07/08 03:11:03;;;;;;;11.95;8.20;;;;;;;20.05;88.25;100240.75;1770083;81;21004;-68
2023/07/08 03:13:33;;;;;;;13.50;8.78;;;;;;;20.06;88.33;100242.44;1770200;81;21011;-70
2023/07/08 03:16:08;;;;;;;12.03;8.23;;;;;;;20.05;87.80;100254.11;1770100;81;21027;-68
2023/07/08 03:18:38;;;;;;;12.98;8.60;;;;;;;20.03;87.90;100240.18;1701656;84;21071;-69
2023/07/08 03:21:08;;;;;;;12.05;8.28;;;;;;;20.01;87.08;100246.55;1769844;81;21509;-69
2023/07/08 03:23:37;;;;;;;11.05;7.90;;;;;;;19.99;87.49;100245.98;1654038;84;21079;-68
2023/07/08 03:26:07;;;;;;;10.53;7.95;;;;;;;19.97;86.90;100243.47;1769851;81;21700;-67
2023/07/08 03:28:36;;;;;;;11.85;8.00;;;;;;;19.97;86.91;100238.45;1701818;84;21103;-68
2023/07/08 03:31:09;;;;;;;13.65;8.05;;;;;;;19.94;87.05;100250.39;1701907;84;21083;-69
2023/07/08 03:33:38;;;;;;;13.48;7.80;;;;;;;19.95;86.98;100243.73;1769888;81;21059;-68
2023/07/08 03:36:22;;;;;;;11.35;7.80;;;;;;;19.95;86.55;100240.11;1769906;81;21079;-68
2023/07/08 03:38:44;;;;;;;12.55;7.95;;;;;;;19.93;86.35;100241.76;1700869;84;21091;-68
2023/07/08 03:41:14;;;;;;;10.50;7.58;;;;;;;19.92;86.77;100233.68;1769854;81;21537;-69
2023/07/08 03:43:42;;;;;;;18.12;8.23;;;;;;;19.91;86.06;100238.95;1701685;84;21099;-68
2023/07/08 03:46:15;;;;;;;10.48;7.28;;;;;;;19.89;85.78;100233.66;1701612;84;21064;-69
2023/07/08 03:48:44;;;;;;;12.40;7.65;;;;;;;19.85;85.63;100229.72;1741535;81;21055;-66
2023/07/08 03:51:23;;;;;;;12.78;7.33;;;;;;;19.84;85.88;100234.16;1769809;81;21044;-68
2023/07/08 03:53:54;;;;;;;9.98;7.67;;;;;;;19.80;85.98;100225.50;1769760;81;21051;-69
2023/07/08 03:56:24;;;;;;;13.08;8.38;;;;;;;19.81;85.89;100225.79;1769872;81;21063;-68
2023/07/08 03:58:53;;;;;;;11.75;8.15;;;;;;;19.80;85.77;100215.77;1769932;81;21071;-69
2023/07/08 04:01:24;;;;;;;13.83;7.40;;;;;;;19.78;85.63;100207.41;1701615;84;21111;-68
2023/07/08 04:03:54;;;;;;;11.10;7.95;;;;;;;19.79;85.83;100204.91;1769926;81;21067;-69
2023/07/08 04:06:23;;;;;;;10.15;7.60;;;;;;;19.79;85.87;100205.75;1701628;84;21545;-68
2023/07/08 04:08:52;;;;;;;13.68;8.30;;;;;;;19.80;86.17;100207.43;1770043;81;21095;-69
2023/07/08 04:11:22;;;;;;;15.20;8.40;;;;;;;19.80;85.42;100199.64;1770079;81;21043;-68
2023/07/08 04:13:51;;;;;;;11.55;7.90;;;;;;;19.80;85.40;100210.21;1770211;81;21039;-68
2023/07/08 04:16:28;;;;;;;11.20;7.80;;;;;;;19.81;85.68;100198.54;1769973;81;20988;-69
2023/07/08 04:18:57;;;;;;;11.45;7.65;;;;;;;19.81;85.39;100201.31;1701676;84;21448;-67
2023/07/08 04:21:25;;;;;;;10.25;7.47;;;;;;;19.78;84.84;100192.95;1701797;84;21044;-68
2023/07/08 04:23:57;;;;;;;10.23;7.70;;;;;;;19.77;85.00;100188.50;1701426;84;21052;-68
2023/07/08 04:26:26;;;;;;;17.25;7.78;;;;;;;19.78;85.39;100186.55;1701048;84;21080;-69
2023/07/08 04:28:55;;;;;;;10.38;7.22;;;;;;;19.79;85.03;100181.28;1701911;84;21032;-68
2023/07/08 04:31:24;;;;;;;11.15;7.40;;;;;;;19.78;84.87;100176.82;1701954;84;21060;-68
2023/07/08 04:33:53;;;;;;;10.90;7.60;;;;;;;19.78;84.51;100176.27;1769594;81;21004;-70
2023/07/08 04:36:24;;;;;;;11.18;6.78;;;;;;;19.78;84.56;100177.66;1769850;81;21051;-68
2023/07/08 04:38:52;;;;;;;10.82;6.87;;;;;;;19.81;84.17;100174.91;1701872;84;21099;-67
2023/07/08 04:41:20;;;;;;;10.25;6.90;;;;;;;19.82;84.18;100177.42;1701486;84;21064;-69
2023/07/08 04:43:53;;;;;;;11.45;7.42;;;;;;;19.84;84.10;100181.33;1764417;81;21060;-68
2023/07/08 04:46:26;;;;;;;11.38;6.78;;;;;;;19.87;84.03;100183.58;1764497;81;21039;-68
2023/07/08 04:48:55;;;;;;;14.87;7.20;;;;;;;19.89;83.64;100176.65;1764631;81;21004;-69
2023/07/08 04:51:24;;;;;;;10.13;7.05;;;;;;;19.91;83.48;100171.66;1764536;81;21075;-69
2023/07/08 04:53:53;;;;;;;9.88;6.72;;;;;;;19.93;83.59;100186.14;1764412;81;21039;-68
2023/07/08 04:56:26;;;;;;;12.60;7.20;;;;;;;19.94;83.19;100168.35;1764433;81;21020;-67
2023/07/08 04:58:55;;;;;;;9.38;6.35;;;;;;;19.96;83.08;100161.13;1764433;81;21008;-68
2023/07/08 05:01:24;;;;;;;10.10;6.75;;;;;;;19.98;82.77;100163.65;1696833;84;21008;-67
2023/07/08 05:03:53;;;;;;;9.73;6.92;;;;;;;20.03;82.94;100159.52;1764375;81;21032;-69
2023/07/08 05:06:21;;;;;;;10.10;6.58;;;;;;;20.04;82.20;100152.30;1764398;81;21259;-68
2023/07/08 05:08:51;;;;;;;9.35;6.25;;;;;;;20.06;82.03;100156.20;1696309;84;21036;-68
2023/07/08 05:11:20;;;;;;;10.00;6.58;;;;;;;20.08;82.33;100147.88;1764428;81;21043;-68
2023/07/08 05:13:49;;;;;;;11.10;6.67;;;;;;;20.13;82.05;100159.59;1764404;81;21546;-68
2023/07/08 05:16:17;;;;;;;12.65;6.33;;;;;;;20.15;81.79;100156.00;1696407;84;21032;-70
2023/07/08 05:18:46;;;;;;;10.28;6.42;;;;;;;20.17;81.26;100149.64;1764414;81;20996;-69
2023/07/08 05:21:15;;;;;;;9.95;6.30;;;;;;;20.17;81.33;100148.25;1696390;84;21087;-68
2023/07/08 05:23:44;;;;;;;14.15;7.10;;;;;;;20.19;81.06;100146.88;1764417;81;21107;-68
2023/07/08 05:26:13;;;;;;;9.13;5.87;;;;;;;20.21;80.96;100140.50;1696512;84;21018;-68
2023/07/08 05:28:42;;;;;;;8.23;5.90;;;;;;;20.20;81.13;100136.04;1764236;81;21004;-69
2023/07/08 05:31:10;;;;;;;11.12;6.00;;;;;;;20.23;80.94;100115.19;1696744;84;21012;-67
2023/07/08 05:33:39;;;;;;;9.45;5.87;;;;;;;20.26;80.81;100131.34;1764656;81;20969;-68
2023/07/08 05:36:08;;;;;;;11.88;6.08;;;;;;;20.27;80.22;100127.45;1764411;80;21003;-69
2023/07/08 05:38:38;;;;;;;13.35;5.90;;;;;;;20.26;79.79;100130.80;1764539;81;21016;-68
2023/07/08 05:41:07;;;;;;;11.12;6.03;;;;;;;20.26;80.18;100130.80;1696524;84;21499;-67
2023/07/08 05:43:36;;;;;;;8.48;5.45;;;;;;;20.31;80.37;100131.93;1766855;81;21525;-68
2023/07/08 05:46:05;;;;;;;10.90;5.65;;;;;;;20.32;79.65;100131.66;1767719;80;21004;-68
2023/07/08 05:48:36;;;;;;;7.80;5.42;;;;;;;20.32;79.57;100141.41;1766768;81;21055;-68
2023/07/08 05:51:06;;;;;;;10.25;5.22;;;;;;;20.32;79.39;100128.04;1689550;84;21059;-69
2023/07/08 05:53:36;;;;;;;9.13;5.55;;;;;;;20.30;79.41;100159.47;1767441;81;21067;-69
2023/07/08 05:56:06;;;;;;;10.30;5.50;;;;;;;20.31;79.29;100155.58;1767596;81;21039;-68
2023/07/08 05:58:36;;;;;;;8.23;5.45;;;;;;;20.32;78.98;100165.05;1740204;81;21056;-69
2023/07/08 06:01:05;;;;;;;9.35;5.12;;;;;;;20.33;78.85;100173.69;1716390;81;21472;-68
2023/07/08 06:03:37;;;;;;;7.78;5.30;;;;;;;20.33;79.14;100175.08;1689866;85;21091;-68
2023/07/08 06:06:06;;;;;;;8.50;5.53;;;;;;;20.34;79.90;100171.75;1739995;81;21460;-69
2023/07/08 06:08:37;;;;;;;8.10;5.58;;;;;;;20.32;80.80;100159.48;1690144;85;21031;-68
2023/07/08 06:11:06;;;;;;;9.65;5.08;;;;;;;20.30;81.12;100155.30;1767705;81;21004;-69
2023/07/08 06:13:34;;;;;;;11.40;4.95;;;;;;;20.28;81.10;100154.17;1767741;81;20996;-69
2023/07/08 06:16:04;;;;;;;7.95;4.92;;;;;;;20.28;81.86;100154.73;1767432;81;21052;-69
2023/07/08 06:18:35;;;;;;;10.55;5.67;;;;;;;20.28;82.13;100154.73;1689804;85;21091;-69
2023/07/08 06:21:05;;;;;;;6.12;4.80;;;;;;;20.26;82.83;100148.04;1767596;81;21019;-71
2023/07/08 06:23:36;;;;;;;9.85;4.87;;;;;;;20.25;83.04;100154.16;1689689;83;21015;-71
2023/07/08 06:26:04;;;;;;;9.90;4.92;;;;;;;20.22;83.56;100152.46;1767484;80;21032;-67
2023/07/08 06:28:33;;;;;;;8.93;5.05;;;;;;;20.21;83.94;100156.34;1767508;81;21052;-69
2023/07/08 06:31:03;;;;;;;8.83;5.28;;;;;;;20.17;84.43;100149.64;1689833;85;21126;-69
2023/07/08 06:33:32;;;;;;;8.45;4.90;;;;;;;20.11;84.58;100153.46;1767395;81;21103;-69
2023/07/08 06:36:01;;;;;;;7.95;4.83;;;;;;;20.07;85.42;100149.53;1671998;85;21031;-68
2023/07/08 06:38:29;;;;;;;10.43;5.22;;;;;;;20.04;86.24;100150.91;1767358;81;21019;-70
2023/07/08 06:40:58;;;;;;;10.23;5.25;;;;;;;20.03;86.38;100165.92;1689660;84;21996;-69
2023/07/08 06:43:27;;;;;;;8.85;5.30;;;;;;;20.03;86.48;100166.47;1767417;81;21460;-69
2023/07/08 06:45:57;;;;;;;7.83;4.83;;;;;;;20.00;86.11;100163.67;1739993;81;21044;-69
2023/07/08 06:48:26;;;;;;;7.60;4.87;;;;;;;19.94;85.92;100166.96;1689639;83;21016;-69
2023/07/08 06:50:55;;;;;;;6.70;4.87;;;;;;;19.92;86.60;100171.95;1740132;81;21405;-70
2023/07/08 06:53:23;;;;;;;7.42;5.78;;;;;;;19.93;87.07;100173.63;1689601;85;20992;-71
2023/07/08 06:55:52;;;;;;;8.23;4.80;;;;;;;19.93;87.52;100174.17;1767613;81;21020;-68
2023/07/08 06:58:21;;;;;;;7.92;5.28;;;;;;;19.95;87.90;100172.81;1767484;81;21043;-74
2023/07/08 07:00:49;;;;;;;6.83;4.70;;;;;;;19.97;87.79;100169.77;1738783;81;21059;-72
2023/07/08 07:03:19;;;;;;;8.65;5.00;;;;;;;20.00;87.72;100176.73;1767463;81;21420;-70
2023/07/08 07:05:48;;;;;;;8.70;5.00;;;;;;;20.01;87.82;100177.02;1767485;81;21000;-68
2023/07/08 07:08:17;;;;;;;7.58;4.65;;;;;;;20.02;88.00;100187.05;1689940;84;21000;-67
2023/07/08 07:10:46;;;;;;;10.98;5.12;;;;;;;20.02;87.05;100180.93;1740295;81;21020;-70
2023/07/08 07:13:15;;;;;;;6.10;4.35;;;;;;;20.03;87.17;100191.50;1689873;85;21766;-69
2023/07/08 07:15:44;;;;;;;10.60;5.00;;;;;;;20.04;87.18;100187.62;1767582;81;21039;-69
2023/07/08 07:18:13;;;;;;;8.90;4.92;;;;;;;20.03;86.65;100195.12;1689897;85;21107;-70
2023/07/08 07:20:50;;;;;;;6.35;4.45;;;;;;;20.02;87.08;100181.48;1767333;81;21455;-70
2023/07/08 07:23:19;;;;;;;8.35;4.40;;;;;;;20.04;87.22;100194.57;1767677;81;21035;-70
2023/07/08 07:25:47;;;;;;;9.25;4.40;;;;;;;20.05;87.35;100190.13;1689828;85;21005;-69
2023/07/08 07:28:16;;;;;;;8.40;4.47;;;;;;;20.08;86.98;100180.42;1767544;81;21489;-70
2023/07/08 07:30:46;;;;;;;9.40;4.67;;;;;;;20.07;85.42;100185.70;1689934;85;21113;-70
2023/07/08 07:33:15;;;;;;;8.45;4.03;;;;;;;20.05;85.68;100188.74;1767511;81;21094;-69
2023/07/08 07:35:44;;;;;;;7.40;4.47;;;;;;;20.05;85.75;100189.30;1689694;85;21070;-69
2023/07/08 07:38:15;;;;;;;8.90;4.10;;;;;;;20.05;86.24;100188.74;1767528;81;21044;-67
2023/07/08 07:40:45;;;;;;;7.25;4.65;;;;;;;20.03;85.26;100184.55;1689743;85;21144;-70
2023/07/08 07:43:14;;;;;;;9.33;4.70;;;;;;;20.04;85.93;100185.67;1767414;81;21072;-69
2023/07/08 07:45:43;;;;;;;8.15;4.22;;;;;;;20.05;85.39;100187.35;1767347;81;21501;-68
2023/07/08 07:48:12;;;;;;;8.93;4.53;;;;;;;20.07;85.25;100184.31;1689934;85;21013;-69
2023/07/08 07:50:46;;;;;;;14.58;5.42;;;;;;;20.08;84.74;100183.20;1739752;81;21024;-71
2023/07/08 07:53:15;;;;;;;6.78;4.70;;;;;;;20.07;84.87;100182.92;1743636;80;21094;-71
2023/07/08 07:55:44;;;;;;;8.18;4.55;;;;;;;20.06;84.43;100184.86;1759754;80;20997;-69
2023/07/08 07:58:13;;;;;;;7.50;4.67;;;;;;;20.03;83.81;100192.89;1751716;82;21079;-72
2023/07/08 08:00:42;;;;;;;5.87;4.40;;;;;;;20.00;84.03;100184.53;1694998;85;21105;-70
2023/07/08 08:03:12;;;;;;;6.78;4.40;;;;;;;19.98;84.10;100182.56;1693870;85;21087;-68
2023/07/08 08:05:40;;;;;;;8.80;4.55;;;;;;;19.98;84.10;100183.12;1757280;82;21066;-69
2023/07/08 08:08:09;;;;;;;7.40;4.40;;;;;;;19.97;84.65;100185.06;1726476;82;21062;-74
2023/07/08 08:10:39;;;;;;;8.95;4.65;;;;;;;19.98;84.57;100188.67;1761205;80;21483;-73
2023/07/08 08:13:08;;;;;;;8.58;4.53;;;;;;;19.94;83.62;100183.64;1713725;83;21455;-71
2023/07/08 08:15:37;;;;;;;7.22;4.22;;;;;;;19.95;84.04;100180.31;1779724;80;20995;-73
2023/07/08 08:18:05;;;;;;;9.90;4.62;;;;;;;19.92;83.28;100188.63;1779403;80;20999;-73
2023/07/08 08:20:34;;;;;;;9.30;4.62;;;;;;;19.94;84.21;100185.59;1779925;80;21059;-72
2023/07/08 08:23:03;;;;;;;8.18;4.58;;;;;;;19.95;84.54;100189.50;1779711;80;21063;-72
2023/07/08 08:25:32;;;;;;;7.22;4.30;;;;;;;19.96;84.38;100187.55;1779883;80;21492;-72
2023/07/08 08:28:00;;;;;;;8.23;4.12;;;;;;;19.99;85.37;100186.19;1773012;80;21443;-72
2023/07/08 08:30:29;;;;;;;9.33;4.30;;;;;;;20.01;85.48;100181.20;1757218;82;21124;-73
2023/07/08 08:32:58;;;;;;;7.65;4.40;;;;;;;20.00;84.66;100183.69;1757198;82;21089;-72
2023/07/08 08:35:27;;;;;;;7.22;4.72;;;;;;;20.00;84.76;100191.48;1726049;82;21028;-74
2023/07/08 08:37:56;;;;;;;6.60;4.50;;;;;;;20.01;85.32;100188.15;1757263;82;21094;-71
2023/07/08 08:40:24;;;;;;;5.72;4.15;;;;;;;20.03;85.57;100199.84;1757399;82;21091;-73
2023/07/08 08:43:06;;;;;;;8.00;4.35;;;;;;;20.04;85.45;100196.80;1756158;82;21090;-74
2023/07/08 08:45:58;;;;;;;6.95;4.30;;;;;;;20.07;86.47;100202.38;1725470;82;21083;-72
2023/07/08 08:48:28;;;;;;;5.70;4.62;;;;;;;20.09;86.20;100204.35;1749330;82;21071;-72
2023/07/08 08:51:04;;;;;;;7.28;4.35;;;;;;;20.10;86.53;100223.56;1749190;82;21166;-72
2023/07/08 08:53:33;;;;;;;5.65;4.00;;;;;;;20.13;86.67;100225.81;1687540;85;21043;-73
2023/07/08 08:56:17;;;;;;;10.20;4.22;;;;;;;20.15;86.35;100231.11;1687379;85;21381;-72
2023/07/08 08:58:52;;;;;;;9.25;4.15;;;;;;;20.14;85.35;100224.70;1687270;85;21729;-72
2023/07/08 09:01:21;;;;;;;5.40;3.37;;;;;;;20.14;84.61;100244.18;1749342;82;21015;-73
2023/07/08 09:03:54;;;;;;;5.33;3.72;;;;;;;20.13;83.38;100244.45;1687141;85;21393;-71
2023/07/08 09:06:30;;;;;;;8.73;3.80;;;;;;;20.09;83.12;100248.30;1749147;82;21027;-74
2023/07/08 09:09:03;;;;;;;9.63;3.60;;;;;;;20.09;83.25;100257.20;1749144;82;21051;-74
2023/07/08 09:12:07;;;;;;;6.53;3.40;;;;;;;20.08;83.51;100267.48;1749175;82;21483;-73
2023/07/08 09:14:38;;;;;;;4.70;3.17;;;;;;;20.08;83.59;100268.04;1685856;85;21552;-73
2023/07/08 09:17:24;;;;;;;7.90;3.27;;;;;;;20.04;81.80;100275.23;1749075;82;21019;-75
2023/07/08 09:20:13;;;;;;;6.40;4.08;;;;;;;19.99;80.96;100266.84;1749264;82;21549;-76
2023/07/08 09:23:03;;;;;;;5.25;3.35;;;;;;;19.93;81.09;100266.79;1732160;82;21047;-76
2023/07/08 09:25:40;;;;;;;5.37;3.75;;;;;;;19.90;82.05;100277.05;1749122;82;21051;-76
2023/07/08 09:28:09;;;;;;;5.58;2.70;;;;;;;19.85;82.02;100283.95;1687559;85;21467;-76
2023/07/08 09:30:39;;;;;;;6.92;3.33;;;;;;;19.79;82.22;100276.66;1727062;82;21035;-74
2023/07/08 09:33:08;;;;;;;5.50;2.83;;;;;;;19.75;82.40;100274.66;1749336;82;21078;-75
2023/07/08 09:35:46;;;;;;;6.40;3.10;;;;;;;19.70;82.47;100270.43;1665792;85;21511;-76
2023/07/08 09:38:19;;;;;;;7.58;3.30;;;;;;;19.67;82.84;100277.34;1749281;82;21098;-77
2023/07/08 09:40:54;;;;;;;5.25;3.05;;;;;;;19.63;82.84;100277.58;1664086;86;21095;-77
2023/07/08 09:43:30;;;;;;;5.45;2.85;;;;;;;19.57;82.48;100278.63;1660068;86;21438;-73
2023/07/08 09:45:59;;;;;;;5.85;3.17;;;;;;;19.53;82.07;100278.30;1605331;89;21079;-73
2023/07/08 09:48:32;;;;;;;7.37;2.90;;;;;;;19.48;82.29;100276.79;1646191;87;21091;-74
2023/07/08 09:51:01;;;;;;;5.53;2.98;;;;;;;19.43;82.63;100275.34;1585622;89;21099;-72
2023/07/08 09:53:31;;;;;;;8.23;3.08;;;;;;;19.38;83.26;100275.83;1645479;87;21056;-75
2023/07/08 09:56:00;;;;;;;6.17;2.90;;;;;;;19.37;82.89;100274.14;1644495;87;21075;-67
2023/07/08 09:58:33;;;;;;;3.98;2.50;;;;;;;19.35;83.39;100272.17;1642915;84;21102;-68
2023/07/08 10:01:13;;;;;;;3.83;2.80;;;;;;;19.36;83.69;100275.24;1679095;85;21087;-73
2023/07/08 10:03:41;;;;;;;7.53;3.30;;;;;;;19.34;84.08;100276.89;1693879;85;21050;-74
2023/07/08 10:06:23;;;;;;;9.18;3.02;;;;;;;19.35;84.51;100281.89;1661035;85;21521;-74
2023/07/08 10:09:03;;;;;;;4.65;3.00;;;;;;;19.33;84.78;100271.88;1656498;85;21055;-74
2023/07/08 10:11:39;;;;;;;5.40;3.17;;;;;;;19.36;85.00;100278.02;1694426;85;21111;-72
2023/07/08 10:14:23;;;;;;;7.45;3.50;;;;;;;19.36;85.59;100275.24;1720742;83;21019;-73
2023/07/08 10:16:52;;;;;;;4.83;2.95;;;;;;;19.33;86.14;100271.05;1704996;83;21110;-74
2023/07/08 10:19:20;;;;;;;6.30;3.05;;;;;;;19.30;85.83;100268.23;1727225;83;21063;-74
2023/07/08 10:22:06;;;;;;;4.55;2.70;;;;;;;19.31;86.80;100273.24;1727230;83;21034;-74
2023/07/08 10:24:57;;;;;;;5.50;3.33;;;;;;;19.32;86.96;100274.92;1727319;83;21074;-73
2023/07/08 10:27:50;;;;;;;5.85;3.27;;;;;;;19.32;87.28;100281.31;1727322;83;20999;-76
2023/07/08 10:30:28;;;;;;;7.72;3.60;;;;;;;19.31;87.41;100282.42;1726452;83;21521;-70
2023/07/08 10:33:32;;;;;;;8.25;3.62;;;;;;;19.32;87.56;100287.42;1727521;83;21026;-69
2023/07/08 10:36:32;;;;;;;7.72;2.92;;;;;;;19.35;88.32;100283.28;1727456;83;21063;-69
2023/07/08 10:39:27;;;;;;;8.73;3.55;;;;;;;19.42;89.65;100290.88;1725729;83;21051;-69
2023/07/08 10:42:28;;;;;;;4.45;3.05;;;;;;;19.51;90.46;100284.64;1727221;83;21305;-68
2023/07/08 10:45:06;;;;;;;6.25;3.10;;;;;;;19.62;90.69;100282.30;1736723;82;21468;-67
2023/07/08 10:47:46;;;;;;;5.60;3.12;;;;;;;19.70;90.24;100287.95;1726835;82;21059;-68
2023/07/08 10:50:32;;;;;;;6.47;3.52;;;;;;;19.76;89.79;100283.28;1740043;82;21109;-67
2023/07/08 10:53:09;;;;;;;5.22;3.02;;;;;;;19.82;89.64;100285.86;1739964;82;21027;-68
2023/07/08 10:55:57;;;;;;;5.65;3.08;;;;;;;19.89;89.69;100286.49;1666223;86;21573;-68
2023/07/08 10:58:55;;;;;;;5.58;3.40;;;;;;;19.90;88.50;100279.83;1740114;82;21479;-66
2023/07/08 11:01:45;;;;;;;7.00;3.35;;;;;;;19.94;88.78;100278.20;1667007;86;21047;-68
2023/07/08 11:04:40;;;;;;;6.30;3.60;;;;;;;20.00;88.79;100281.03;1719250;83;21049;-67
2023/07/08 11:07:31;;;;;;;5.72;3.22;;;;;;;20.04;88.44;100287.20;1719274;83;21531;-67
2023/07/08 11:10:08;;;;;;;7.87;3.95;;;;;;;20.09;88.14;100283.08;1719056;82;21073;-67
2023/07/08 11:12:47;;;;;;;7.90;3.75;;;;;;;20.14;88.06;100285.07;1703917;83;21066;-67
2023/07/08 11:15:23;;;;;;;7.45;4.10;;;;;;;20.15;87.98;100281.19;1719364;83;21073;-67
2023/07/08 11:18:06;;;;;;;4.92;3.45;;;;;;;20.19;87.75;100276.80;1719297;82;21032;-66
2023/07/08 11:21:00;;;;;;;4.80;3.15;;;;;;;20.21;87.64;100277.37;1719318;83;21035;-66
2023/07/08 11:23:46;;;;;;;7.92;4.80;;;;;;;20.23;87.04;100276.56;1719135;83;21073;-67
2023/07/08 11:26:26;;;;;;;7.08;3.85;;;;;;;20.29;86.66;100274.11;1719452;82;21085;-72
2023/07/08 11:28:58;;;;;;;5.40;3.00;;;;;;;20.32;85.46;100270.80;1719260;83;21065;-71
2023/07/08 11:31:31;;;;;;;5.22;2.80;;;;;;;20.32;83.24;100267.17;1719165;83;21046;-71
2023/07/08 11:34:00;;;;;;;6.05;3.00;;;;;;;20.32;82.79;100261.61;1691489;83;21081;-71
2023/07/08 11:36:28;;;;;;;4.92;2.80;;;;;;;20.32;83.25;100265.78;1719346;82;21046;-70
2023/07/08 11:38:57;;;;;;;3.80;2.60;;;;;;;20.32;81.90;100259.67;1719281;83;21042;-72
2023/07/08 11:41:30;;;;;;;4.15;2.70;;;;;;;20.35;80.31;100263.86;1719240;82;21010;-71
2023/07/08 11:44:05;;;;;;;6.55;2.83;;;;;;;20.38;78.97;100256.38;1722904;82;21109;-72